sensor_id;sensor_type;location;lat;lon;timestamp;P1;durP1;ratioP1;P2;durP2;ratioP2
29824;SDS011;16713;52.916;12.834;2023-05-21T00:02:18;8.73;;;5.03;;
29824;SDS011;16713;52.916;12.834;2023-05-21T00:04:45;7.30;;;4.93;;
29824;SDS011;16713;52.916;12.834;2023-05-21T00:07:12;13.40;;;9.05;;
29824;SDS011;16713;52.916;12.834;2023-05-21T00:09:40;10.93;;;5.50;;
29824;SDS011;16713;52.916;12.834;2023-05-21T00:12:07;6.85;;;4.82;;
29824;SDS011;16713;52.916;12.834;2023-05-21T00:14:34;9.48;;;4.57;;
29824;SDS011;16713;52.916;12.834;2023-05-21T00:17:01;9.88;;;5.45;;
29824;SDS011;16713;52.916;12.834;2023-05-21T00:19:28;15.63;;;7.15;;
29824;SDS011;16713;52.916;12.834;2023-05-21T00:21:55;9.40;;;4.82;;
29824;SDS011;16713;52.916;12.834;2023-05-21T00:24:22;7.45;;;5.13;;
29824;SDS011;16713;52.916;12.834;2023-05-21T00:26:49;8.63;;;5.50;;
29824;SDS011;16713;52.916;12.834;2023-05-21T00:29:15;5.80;;;5.07;;
29824;SDS011;16713;52.916;12.834;2023-05-21T00:31:42;7.28;;;5.18;;
29824;SDS011;16713;52.916;12.834;2023-05-21T00:34:08;7.82;;;5.70;;
29824;SDS011;16713;52.916;12.834;2023-05-21T00:36:35;11.45;;;6.05;;
29824;SDS011;16713;52.916;12.834;2023-05-21T00:39:01;7.53;;;6.22;;
29824;SDS011;16713;52.916;12.834;2023-05-21T00:41:29;9.60;;;5.57;;
29824;SDS011;16713;52.916;12.834;2023-05-21T00:43:56;7.95;;;5.50;;
29824;SDS011;16713;52.916;12.834;2023-05-21T00:46:25;8.18;;;6.15;;
29824;SDS011;16713;52.916;12.834;2023-05-21T00:48:53;8.38;;;5.40;;
29824;SDS011;16713;52.916;12.834;2023-05-21T00:51:20;7.85;;;6.00;;
29824;SDS011;16713;52.916;12.834;2023-05-21T00:53:48;10.95;;;6.15;;
29824;SDS011;16713;52.916;12.834;2023-05-21T00:56:18;8.02;;;6.18;;
29824;SDS011;16713;52.916;12.834;2023-05-21T00:58:47;8.95;;;6.88;;
29824;SDS011;16713;52.916;12.834;2023-05-21T01:01:17;13.20;;;6.53;;
29824;SDS011;16713;52.916;12.834;2023-05-21T01:03:44;9.05;;;6.35;;
29824;SDS011;16713;52.916;12.834;2023-05-21T01:06:14;14.10;;;7.28;;
29824;SDS011;16713;52.916;12.834;2023-05-21T01:08:41;7.63;;;6.07;;
29824;SDS011;16713;52.916;12.834;2023-05-21T01:11:08;9.00;;;5.82;;
29824;SDS011;16713;52.916;12.834;2023-05-21T01:13:37;7.57;;;5.80;;
29824;SDS011;16713;52.916;12.834;2023-05-21T01:16:06;10.25;;;6.03;;
29824;SDS011;16713;52.916;12.834;2023-05-21T01:18:34;9.85;;;6.20;;
29824;SDS011;16713;52.916;12.834;2023-05-21T01:21:03;8.95;;;6.07;;
29824;SDS011;16713;52.916;12.834;2023-05-21T01:23:30;10.90;;;6.72;;
29824;SDS011;16713;52.916;12.834;2023-05-21T01:25:57;9.82;;;6.65;;
29824;SDS011;16713;52.916;12.834;2023-05-21T01:28:23;10.57;;;6.78;;
29824;SDS011;16713;52.916;12.834;2023-05-21T01:30:50;10.35;;;7.20;;
29824;SDS011;16713;52.916;12.834;2023-05-21T01:33:18;12.93;;;7.53;;
29824;SDS011;16713;52.916;12.834;2023-05-21T01:36:14;10.70;;;6.57;;
29824;SDS011;16713;52.916;12.834;2023-05-21T01:38:40;14.15;;;7.72;;
29824;SDS011;16713;52.916;12.834;2023-05-21T01:41:11;9.32;;;6.28;;
29824;SDS011;16713;52.916;12.834;2023-05-21T01:43:40;9.77;;;6.80;;
29824;SDS011;16713;52.916;12.834;2023-05-21T01:46:09;14.50;;;8.02;;
29824;SDS011;16713;52.916;12.834;2023-05-21T01:48:39;13.05;;;7.63;;
29824;SDS011;16713;52.916;12.834;2023-05-21T01:51:07;9.18;;;6.82;;
29824;SDS011;16713;52.916;12.834;2023-05-21T01:53:33;12.80;;;7.75;;
29824;SDS011;16713;52.916;12.834;2023-05-21T01:56:00;9.38;;;7.75;;
29824;SDS011;16713;52.916;12.834;2023-05-21T01:58:27;10.30;;;7.38;;
29824;SDS011;16713;52.916;12.834;2023-05-21T02:00:54;12.90;;;8.32;;
29824;SDS011;16713;52.916;12.834;2023-05-21T02:03:23;14.45;;;8.20;;
29824;SDS011;16713;52.916;12.834;2023-05-21T02:05:51;11.38;;;7.82;;
29824;SDS011;16713;52.916;12.834;2023-05-21T02:08:18;13.88;;;8.07;;
29824;SDS011;16713;52.916;12.834;2023-05-21T02:10:45;11.25;;;8.32;;
29824;SDS011;16713;52.916;12.834;2023-05-21T02:13:11;12.48;;;8.90;;
29824;SDS011;16713;52.916;12.834;2023-05-21T02:15:38;12.30;;;8.75;;
29824;SDS011;16713;52.916;12.834;2023-05-21T02:18:05;18.27;;;8.57;;
29824;SDS011;16713;52.916;12.834;2023-05-21T02:20:32;10.52;;;8.40;;
29824;SDS011;16713;52.916;12.834;2023-05-21T02:22:58;11.40;;;8.35;;
29824;SDS011;16713;52.916;12.834;2023-05-21T02:25:25;14.07;;;8.38;;
29824;SDS011;16713;52.916;12.834;2023-05-21T02:27:51;11.88;;;9.25;;
29824;SDS011;16713;52.916;12.834;2023-05-21T02:30:19;21.02;;;12.30;;
29824;SDS011;16713;52.916;12.834;2023-05-21T02:32:46;17.92;;;11.40;;
29824;SDS011;16713;52.916;12.834;2023-05-21T02:35:13;11.60;;;9.00;;
29824;SDS011;16713;52.916;12.834;2023-05-21T02:37:40;13.07;;;9.30;;
29824;SDS011;16713;52.916;12.834;2023-05-21T02:40:09;19.83;;;11.00;;
29824;SDS011;16713;52.916;12.834;2023-05-21T02:42:36;17.00;;;10.63;;
29824;SDS011;16713;52.916;12.834;2023-05-21T02:45:08;14.60;;;10.80;;
29824;SDS011;16713;52.916;12.834;2023-05-21T02:47:36;13.85;;;10.93;;
29824;SDS011;16713;52.916;12.834;2023-05-21T02:50:04;12.45;;;10.25;;
29824;SDS011;16713;52.916;12.834;2023-05-21T02:52:32;15.48;;;10.60;;
29824;SDS011;16713;52.916;12.834;2023-05-21T02:54:59;16.05;;;10.73;;
29824;SDS011;16713;52.916;12.834;2023-05-21T02:57:25;14.18;;;9.48;;
29824;SDS011;16713;52.916;12.834;2023-05-21T02:59:52;13.15;;;9.75;;
29824;SDS011;16713;52.916;12.834;2023-05-21T03:02:18;14.00;;;11.55;;
29824;SDS011;16713;52.916;12.834;2023-05-21T03:04:45;18.55;;;10.65;;
29824;SDS011;16713;52.916;12.834;2023-05-21T03:07:12;21.30;;;14.55;;
29824;SDS011;16713;52.916;12.834;2023-05-21T03:09:42;13.80;;;10.48;;
29824;SDS011;16713;52.916;12.834;2023-05-21T03:12:09;16.48;;;11.50;;
29824;SDS011;16713;52.916;12.834;2023-05-21T03:14:36;17.70;;;11.57;;
29824;SDS011;16713;52.916;12.834;2023-05-21T03:17:02;14.02;;;10.70;;
29824;SDS011;16713;52.916;12.834;2023-05-21T03:19:33;15.77;;;11.38;;
29824;SDS011;16713;52.916;12.834;2023-05-21T03:22:01;15.00;;;11.00;;
29824;SDS011;16713;52.916;12.834;2023-05-21T03:24:29;14.98;;;11.35;;
29824;SDS011;16713;52.916;12.834;2023-05-21T03:26:55;14.68;;;11.20;;
29824;SDS011;16713;52.916;12.834;2023-05-21T03:29:22;14.93;;;11.35;;
29824;SDS011;16713;52.916;12.834;2023-05-21T03:31:50;16.98;;;11.35;;
29824;SDS011;16713;52.916;12.834;2023-05-21T03:34:18;16.25;;;12.18;;
29824;SDS011;16713;52.916;12.834;2023-05-21T03:36:45;19.60;;;14.90;;
29824;SDS011;16713;52.916;12.834;2023-05-21T03:39:12;17.55;;;13.30;;
29824;SDS011;16713;52.916;12.834;2023-05-21T03:41:39;18.17;;;12.35;;
29824;SDS011;16713;52.916;12.834;2023-05-21T03:44:06;16.95;;;12.15;;
29824;SDS011;16713;52.916;12.834;2023-05-21T03:46:32;19.52;;;13.80;;
29824;SDS011;16713;52.916;12.834;2023-05-21T03:48:59;17.95;;;13.23;;
29824;SDS011;16713;52.916;12.834;2023-05-21T03:51:26;19.20;;;12.25;;
29824;SDS011;16713;52.916;12.834;2023-05-21T03:53:52;17.17;;;12.68;;
29824;SDS011;16713;52.916;12.834;2023-05-21T03:56:19;20.02;;;12.70;;
29824;SDS011;16713;52.916;12.834;2023-05-21T03:58:46;15.30;;;11.98;;
29824;SDS011;16713;52.916;12.834;2023-05-21T04:01:13;21.48;;;14.15;;
29824;SDS011;16713;52.916;12.834;2023-05-21T04:03:39;22.05;;;13.80;;
29824;SDS011;16713;52.916;12.834;2023-05-21T04:06:06;16.65;;;12.02;;
29824;SDS011;16713;52.916;12.834;2023-05-21T04:08:35;17.23;;;12.15;;
29824;SDS011;16713;52.916;12.834;2023-05-21T04:11:03;14.32;;;11.75;;
29824;SDS011;16713;52.916;12.834;2023-05-21T04:13:29;18.38;;;13.18;;
29824;SDS011;16713;52.916;12.834;2023-05-21T04:15:56;16.20;;;13.13;;
29824;SDS011;16713;52.916;12.834;2023-05-21T04:18:22;17.75;;;12.35;;
29824;SDS011;16713;52.916;12.834;2023-05-21T04:20:51;20.00;;;13.25;;
29824;SDS011;16713;52.916;12.834;2023-05-21T04:23:17;17.05;;;12.95;;
29824;SDS011;16713;52.916;12.834;2023-05-21T04:25:44;18.00;;;13.48;;
29824;SDS011;16713;52.916;12.834;2023-05-21T04:28:10;16.80;;;13.20;;
29824;SDS011;16713;52.916;12.834;2023-05-21T04:30:37;20.13;;;13.25;;
29824;SDS011;16713;52.916;12.834;2023-05-21T04:33:03;20.73;;;14.05;;
29824;SDS011;16713;52.916;12.834;2023-05-21T04:35:30;20.35;;;14.18;;
29824;SDS011;16713;52.916;12.834;2023-05-21T04:37:57;23.08;;;14.52;;
29824;SDS011;16713;52.916;12.834;2023-05-21T04:40:23;22.05;;;14.65;;
29824;SDS011;16713;52.916;12.834;2023-05-21T04:42:49;17.70;;;14.27;;
29824;SDS011;16713;52.916;12.834;2023-05-21T04:45:16;21.40;;;17.23;;
29824;SDS011;16713;52.916;12.834;2023-05-21T04:47:43;20.73;;;14.80;;
29824;SDS011;16713;52.916;12.834;2023-05-21T04:50:09;17.95;;;14.57;;
29824;SDS011;16713;52.916;12.834;2023-05-21T04:52:38;20.77;;;14.73;;
29824;SDS011;16713;52.916;12.834;2023-05-21T04:55:08;22.98;;;14.70;;
29824;SDS011;16713;52.916;12.834;2023-05-21T04:57:35;25.33;;;17.15;;
29824;SDS011;16713;52.916;12.834;2023-05-21T05:00:02;25.77;;;17.52;;
29824;SDS011;16713;52.916;12.834;2023-05-21T05:02:31;22.25;;;16.25;;
29824;SDS011;16713;52.916;12.834;2023-05-21T05:04:58;23.77;;;16.25;;
29824;SDS011;16713;52.916;12.834;2023-05-21T05:07:25;21.20;;;15.93;;
29824;SDS011;16713;52.916;12.834;2023-05-21T05:09:51;21.40;;;15.13;;
29824;SDS011;16713;52.916;12.834;2023-05-21T05:12:18;24.10;;;16.85;;
29824;SDS011;16713;52.916;12.834;2023-05-21T05:14:44;22.48;;;17.38;;
29824;SDS011;16713;52.916;12.834;2023-05-21T05:17:11;20.73;;;16.73;;
29824;SDS011;16713;52.916;12.834;2023-05-21T05:19:40;20.08;;;15.48;;
29824;SDS011;16713;52.916;12.834;2023-05-21T05:22:06;19.60;;;15.20;;
29824;SDS011;16713;52.916;12.834;2023-05-21T05:24:33;20.02;;;14.82;;
29824;SDS011;16713;52.916;12.834;2023-05-21T05:26:59;20.83;;;15.77;;
29824;SDS011;16713;52.916;12.834;2023-05-21T05:29:26;23.45;;;15.60;;
29824;SDS011;16713;52.916;12.834;2023-05-21T05:31:52;22.10;;;16.25;;
29824;SDS011;16713;52.916;12.834;2023-05-21T05:34:19;18.70;;;16.10;;
29824;SDS011;16713;52.916;12.834;2023-05-21T05:36:45;21.85;;;16.42;;
29824;SDS011;16713;52.916;12.834;2023-05-21T05:39:12;21.75;;;17.33;;
29824;SDS011;16713;52.916;12.834;2023-05-21T05:41:38;24.05;;;17.33;;
29824;SDS011;16713;52.916;12.834;2023-05-21T05:44:05;23.50;;;16.65;;
29824;SDS011;16713;52.916;12.834;2023-05-21T05:46:35;28.48;;;18.25;;
29824;SDS011;16713;52.916;12.834;2023-05-21T05:49:02;19.90;;;16.02;;
29824;SDS011;16713;52.916;12.834;2023-05-21T05:51:28;24.55;;;17.48;;
29824;SDS011;16713;52.916;12.834;2023-05-21T05:53:55;24.27;;;16.58;;
29824;SDS011;16713;52.916;12.834;2023-05-21T05:56:21;23.45;;;15.93;;
29824;SDS011;16713;52.916;12.834;2023-05-21T05:58:48;24.35;;;16.30;;
29824;SDS011;16713;52.916;12.834;2023-05-21T06:01:14;24.75;;;17.55;;
29824;SDS011;16713;52.916;12.834;2023-05-21T06:03:41;19.25;;;15.43;;
29824;SDS011;16713;52.916;12.834;2023-05-21T06:06:08;23.90;;;16.67;;
29824;SDS011;16713;52.916;12.834;2023-05-21T06:08:34;19.70;;;16.35;;
29824;SDS011;16713;52.916;12.834;2023-05-21T06:11:03;19.80;;;16.23;;
29824;SDS011;16713;52.916;12.834;2023-05-21T06:13:30;22.58;;;16.98;;
29824;SDS011;16713;52.916;12.834;2023-05-21T06:15:57;21.30;;;16.60;;
29824;SDS011;16713;52.916;12.834;2023-05-21T06:18:23;24.10;;;17.48;;
29824;SDS011;16713;52.916;12.834;2023-05-21T06:20:50;21.27;;;15.98;;
29824;SDS011;16713;52.916;12.834;2023-05-21T06:23:16;20.58;;;16.10;;
29824;SDS011;16713;52.916;12.834;2023-05-21T06:25:43;24.30;;;17.73;;
29824;SDS011;16713;52.916;12.834;2023-05-21T06:28:09;18.00;;;15.50;;
29824;SDS011;16713;52.916;12.834;2023-05-21T06:30:36;24.80;;;17.25;;
29824;SDS011;16713;52.916;12.834;2023-05-21T06:33:02;22.45;;;17.60;;
29824;SDS011;16713;52.916;12.834;2023-05-21T06:35:29;21.45;;;16.77;;
29824;SDS011;16713;52.916;12.834;2023-05-21T06:37:55;22.55;;;17.42;;
29824;SDS011;16713;52.916;12.834;2023-05-21T06:40:22;20.52;;;17.35;;
29824;SDS011;16713;52.916;12.834;2023-05-21T06:42:48;20.17;;;16.88;;
29824;SDS011;16713;52.916;12.834;2023-05-21T06:45:15;19.23;;;17.10;;
29824;SDS011;16713;52.916;12.834;2023-05-21T06:47:41;20.75;;;17.02;;
29824;SDS011;16713;52.916;12.834;2023-05-21T06:50:08;23.38;;;16.75;;
29824;SDS011;16713;52.916;12.834;2023-05-21T06:52:35;21.85;;;17.15;;
29824;SDS011;16713;52.916;12.834;2023-05-21T06:55:01;19.63;;;15.52;;
29824;SDS011;16713;52.916;12.834;2023-05-21T06:57:28;20.67;;;16.50;;
29824;SDS011;16713;52.916;12.834;2023-05-21T06:59:54;26.00;;;17.00;;
29824;SDS011;16713;52.916;12.834;2023-05-21T07:02:21;18.98;;;15.77;;
29824;SDS011;16713;52.916;12.834;2023-05-21T07:04:47;19.17;;;15.15;;
29824;SDS011;16713;52.916;12.834;2023-05-21T07:07:14;19.42;;;16.25;;
29824;SDS011;16713;52.916;12.834;2023-05-21T07:09:40;19.45;;;17.10;;
29824;SDS011;16713;52.916;12.834;2023-05-21T07:12:07;23.17;;;16.80;;
29824;SDS011;16713;52.916;12.834;2023-05-21T07:14:33;21.10;;;16.02;;
29824;SDS011;16713;52.916;12.834;2023-05-21T07:17:00;20.98;;;16.10;;
29824;SDS011;16713;52.916;12.834;2023-05-21T07:19:26;17.65;;;15.43;;
29824;SDS011;16713;52.916;12.834;2023-05-21T07:21:53;19.90;;;15.25;;
29824;SDS011;16713;52.916;12.834;2023-05-21T07:24:19;25.23;;;16.65;;
29824;SDS011;16713;52.916;12.834;2023-05-21T07:26:46;20.77;;;15.52;;
29824;SDS011;16713;52.916;12.834;2023-05-21T07:29:12;21.33;;;15.90;;
29824;SDS011;16713;52.916;12.834;2023-05-21T07:31:39;17.40;;;15.05;;
29824;SDS011;16713;52.916;12.834;2023-05-21T07:34:06;20.92;;;16.25;;
29824;SDS011;16713;52.916;12.834;2023-05-21T07:36:32;21.67;;;15.95;;
29824;SDS011;16713;52.916;12.834;2023-05-21T07:38:59;21.33;;;16.25;;
29824;SDS011;16713;52.916;12.834;2023-05-21T07:41:26;21.35;;;16.52;;
29824;SDS011;16713;52.916;12.834;2023-05-21T07:43:52;18.30;;;15.20;;
29824;SDS011;16713;52.916;12.834;2023-05-21T07:46:18;19.98;;;15.73;;
29824;SDS011;16713;52.916;12.834;2023-05-21T07:48:45;20.45;;;16.23;;
29824;SDS011;16713;52.916;12.834;2023-05-21T07:51:13;21.30;;;16.25;;
29824;SDS011;16713;52.916;12.834;2023-05-21T07:53:39;22.88;;;16.33;;
29824;SDS011;16713;52.916;12.834;2023-05-21T07:56:06;19.48;;;16.20;;
29824;SDS011;16713;52.916;12.834;2023-05-21T07:58:33;19.95;;;15.68;;
29824;SDS011;16713;52.916;12.834;2023-05-21T08:01:00;19.50;;;16.27;;
29824;SDS011;16713;52.916;12.834;2023-05-21T08:03:27;18.98;;;15.15;;
29824;SDS011;16713;52.916;12.834;2023-05-21T08:05:56;20.75;;;14.48;;
29824;SDS011;16713;52.916;12.834;2023-05-21T08:08:22;20.33;;;15.63;;
29824;SDS011;16713;52.916;12.834;2023-05-21T08:10:50;20.02;;;15.43;;
29824;SDS011;16713;52.916;12.834;2023-05-21T08:13:16;22.17;;;16.30;;
29824;SDS011;16713;52.916;12.834;2023-05-21T08:15:43;20.42;;;16.02;;
29824;SDS011;16713;52.916;12.834;2023-05-21T08:18:09;19.48;;;15.90;;
29824;SDS011;16713;52.916;12.834;2023-05-21T08:20:37;17.20;;;15.38;;
29824;SDS011;16713;52.916;12.834;2023-05-21T08:23:03;20.60;;;15.68;;
29824;SDS011;16713;52.916;12.834;2023-05-21T08:25:30;19.63;;;16.45;;
29824;SDS011;16713;52.916;12.834;2023-05-21T08:27:56;22.30;;;15.40;;
29824;SDS011;16713;52.916;12.834;2023-05-21T08:30:23;18.20;;;14.20;;
29824;SDS011;16713;52.916;12.834;2023-05-21T08:32:49;18.83;;;14.75;;
29824;SDS011;16713;52.916;12.834;2023-05-21T08:35:16;16.77;;;14.02;;
29824;SDS011;16713;52.916;12.834;2023-05-21T08:37:42;21.75;;;15.52;;
29824;SDS011;16713;52.916;12.834;2023-05-21T08:40:09;20.80;;;14.18;;
29824;SDS011;16713;52.916;12.834;2023-05-21T08:42:45;20.55;;;14.15;;
29824;SDS011;16713;52.916;12.834;2023-05-21T08:45:14;16.98;;;13.40;;
29824;SDS011;16713;52.916;12.834;2023-05-21T08:47:45;16.33;;;13.35;;
29824;SDS011;16713;52.916;12.834;2023-05-21T08:50:13;20.10;;;14.68;;
29824;SDS011;16713;52.916;12.834;2023-05-21T08:52:44;20.77;;;13.52;;
29824;SDS011;16713;52.916;12.834;2023-05-21T08:55:11;20.33;;;13.32;;
29824;SDS011;16713;52.916;12.834;2023-05-21T08:57:41;14.73;;;12.70;;
29824;SDS011;16713;52.916;12.834;2023-05-21T09:00:09;20.27;;;12.02;;
29824;SDS011;16713;52.916;12.834;2023-05-21T09:02:37;14.88;;;12.32;;
29824;SDS011;16713;52.916;12.834;2023-05-21T09:05:06;18.42;;;13.00;;
29824;SDS011;16713;52.916;12.834;2023-05-21T09:10:40;16.02;;;12.85;;
29824;SDS011;16713;52.916;12.834;2023-05-21T09:13:11;22.42;;;12.98;;
29824;SDS011;16713;52.916;12.834;2023-05-21T09:15:39;14.18;;;11.93;;
29824;SDS011;16713;52.916;12.834;2023-05-21T09:18:06;19.27;;;12.77;;
29824;SDS011;16713;52.916;12.834;2023-05-21T09:20:33;14.48;;;11.77;;
29824;SDS011;16713;52.916;12.834;2023-05-21T09:23:03;16.23;;;12.00;;
29824;SDS011;16713;52.916;12.834;2023-05-21T09:25:31;17.15;;;12.13;;
29824;SDS011;16713;52.916;12.834;2023-05-21T09:27:58;14.43;;;12.10;;
29824;SDS011;16713;52.916;12.834;2023-05-21T09:30:25;13.57;;;11.35;;
29824;SDS011;16713;52.916;12.834;2023-05-21T09:33:01;15.02;;;11.35;;
29824;SDS011;16713;52.916;12.834;2023-05-21T09:35:28;12.95;;;11.55;;
29824;SDS011;16713;52.916;12.834;2023-05-21T09:37:55;15.50;;;11.10;;
29824;SDS011;16713;52.916;12.834;2023-05-21T09:40:22;16.67;;;10.98;;
29824;SDS011;16713;52.916;12.834;2023-05-21T09:42:53;12.73;;;10.95;;
29824;SDS011;16713;52.916;12.834;2023-05-21T09:45:23;15.13;;;11.30;;
29824;SDS011;16713;52.916;12.834;2023-05-21T09:47:51;12.73;;;10.40;;
29824;SDS011;16713;52.916;12.834;2023-05-21T09:50:23;12.68;;;11.38;;
29824;SDS011;16713;52.916;12.834;2023-05-21T09:52:53;17.38;;;11.98;;
29824;SDS011;16713;52.916;12.834;2023-05-21T09:55:24;16.52;;;11.25;;
29824;SDS011;16713;52.916;12.834;2023-05-21T09:57:52;16.30;;;14.10;;
29824;SDS011;16713;52.916;12.834;2023-05-21T10:00:26;18.42;;;12.88;;
29824;SDS011;16713;52.916;12.834;2023-05-21T10:02:54;28.63;;;19.50;;
29824;SDS011;16713;52.916;12.834;2023-05-21T10:05:27;13.77;;;10.50;;
29824;SDS011;16713;52.916;12.834;2023-05-21T10:08:01;13.82;;;10.55;;
29824;SDS011;16713;52.916;12.834;2023-05-21T10:10:29;18.83;;;11.48;;
29824;SDS011;16713;52.916;12.834;2023-05-21T10:12:58;17.42;;;12.27;;
29824;SDS011;16713;52.916;12.834;2023-05-21T10:15:26;25.45;;;20.10;;
29824;SDS011;16713;52.916;12.834;2023-05-21T10:17:56;19.83;;;10.88;;
29824;SDS011;16713;52.916;12.834;2023-05-21T10:20:24;11.88;;;9.32;;
29824;SDS011;16713;52.916;12.834;2023-05-21T10:22:51;12.00;;;9.27;;
29824;SDS011;16713;52.916;12.834;2023-05-21T10:25:18;10.40;;;9.07;;
29824;SDS011;16713;52.916;12.834;2023-05-21T10:27:45;10.50;;;9.15;;
29824;SDS011;16713;52.916;12.834;2023-05-21T10:30:13;10.85;;;9.30;;
29824;SDS011;16713;52.916;12.834;2023-05-21T10:32:43;21.70;;;10.50;;
29824;SDS011;16713;52.916;12.834;2023-05-21T10:35:14;15.52;;;9.65;;
29824;SDS011;16713;52.916;12.834;2023-05-21T10:37:44;13.63;;;10.63;;
29824;SDS011;16713;52.916;12.834;2023-05-21T10:40:11;12.18;;;9.00;;
29824;SDS011;16713;52.916;12.834;2023-05-21T10:42:46;10.98;;;8.70;;
29824;SDS011;16713;52.916;12.834;2023-05-21T10:57:00;13.23;;;8.02;;
29824;SDS011;16713;52.916;12.834;2023-05-21T10:59:55;12.60;;;8.40;;
29824;SDS011;16713;52.916;12.834;2023-05-21T11:02:24;20.02;;;8.52;;
29824;SDS011;16713;52.916;12.834;2023-05-21T11:04:58;11.88;;;7.38;;
29824;SDS011;16713;52.916;12.834;2023-05-21T11:10:39;11.95;;;7.05;;
29824;SDS011;16713;52.916;12.834;2023-05-21T11:13:06;6.95;;;6.25;;
29824;SDS011;16713;52.916;12.834;2023-05-21T11:21:09;10.18;;;6.32;;
29824;SDS011;16713;52.916;12.834;2023-05-21T11:26:19;14.63;;;7.00;;
29824;SDS011;16713;52.916;12.834;2023-05-21T11:29:06;10.75;;;6.47;;
29824;SDS011;16713;52.916;12.834;2023-05-21T11:31:34;12.13;;;7.32;;
29824;SDS011;16713;52.916;12.834;2023-05-21T11:34:20;9.80;;;7.88;;
29824;SDS011;16713;52.916;12.834;2023-05-21T11:39:43;15.85;;;7.25;;
29824;SDS011;16713;52.916;12.834;2023-05-21T11:42:10;10.00;;;6.93;;
29824;SDS011;16713;52.916;12.834;2023-05-21T11:44:37;10.20;;;6.60;;
29824;SDS011;16713;52.916;12.834;2023-05-21T11:47:08;10.35;;;6.80;;
29824;SDS011;16713;52.916;12.834;2023-05-21T11:49:36;10.95;;;6.75;;
29824;SDS011;16713;52.916;12.834;2023-05-21T11:52:04;8.45;;;6.95;;
29824;SDS011;16713;52.916;12.834;2023-05-21T11:54:32;10.63;;;6.80;;
29824;SDS011;16713;52.916;12.834;2023-05-21T11:57:04;19.63;;;7.55;;
29824;SDS011;16713;52.916;12.834;2023-05-21T11:59:35;12.40;;;7.15;;
29824;SDS011;16713;52.916;12.834;2023-05-21T12:02:02;9.90;;;7.30;;
29824;SDS011;16713;52.916;12.834;2023-05-21T12:04:32;7.93;;;6.95;;
29824;SDS011;16713;52.916;12.834;2023-05-21T12:07:03;10.25;;;7.28;;
29824;SDS011;16713;52.916;12.834;2023-05-21T12:09:41;7.25;;;6.40;;
29824;SDS011;16713;52.916;12.834;2023-05-21T12:12:16;8.35;;;7.03;;
29824;SDS011;16713;52.916;12.834;2023-05-21T12:14:44;12.48;;;7.65;;
29824;SDS011;16713;52.916;12.834;2023-05-21T12:17:12;13.10;;;7.22;;
29824;SDS011;16713;52.916;12.834;2023-05-21T12:19:41;8.07;;;6.88;;
29824;SDS011;16713;52.916;12.834;2023-05-21T12:22:11;12.05;;;6.97;;
29824;SDS011;16713;52.916;12.834;2023-05-21T12:24:38;8.75;;;7.03;;
29824;SDS011;16713;52.916;12.834;2023-05-21T12:27:05;7.82;;;7.10;;
29824;SDS011;16713;52.916;12.834;2023-05-21T12:29:35;9.57;;;6.85;;
29824;SDS011;16713;52.916;12.834;2023-05-21T12:32:07;9.60;;;7.28;;
29824;SDS011;16713;52.916;12.834;2023-05-21T12:34:48;11.88;;;7.10;;
29824;SDS011;16713;52.916;12.834;2023-05-21T12:39:54;10.75;;;7.05;;
29824;SDS011;16713;52.916;12.834;2023-05-21T12:42:23;9.60;;;8.23;;
29824;SDS011;16713;52.916;12.834;2023-05-21T12:44:52;13.98;;;8.82;;
29824;SDS011;16713;52.916;12.834;2023-05-21T12:47:21;17.48;;;9.30;;
29824;SDS011;16713;52.916;12.834;2023-05-21T12:49:49;11.95;;;7.47;;
29824;SDS011;16713;52.916;12.834;2023-05-21T12:52:20;7.75;;;7.00;;
29824;SDS011;16713;52.916;12.834;2023-05-21T12:54:51;12.25;;;7.60;;
29824;SDS011;16713;52.916;12.834;2023-05-21T12:57:20;7.45;;;6.57;;
29824;SDS011;16713;52.916;12.834;2023-05-21T13:04:54;10.25;;;7.57;;
29824;SDS011;16713;52.916;12.834;2023-05-21T13:07:23;9.02;;;6.97;;
29824;SDS011;16713;52.916;12.834;2023-05-21T13:09:51;9.25;;;7.38;;
29824;SDS011;16713;52.916;12.834;2023-05-21T13:12:19;9.63;;;6.95;;
29824;SDS011;16713;52.916;12.834;2023-05-21T13:14:48;12.73;;;6.82;;
29824;SDS011;16713;52.916;12.834;2023-05-21T13:17:16;11.48;;;7.68;;
29824;SDS011;16713;52.916;12.834;2023-05-21T13:19:48;10.52;;;6.82;;
29824;SDS011;16713;52.916;12.834;2023-05-21T13:22:35;10.32;;;7.40;;
29824;SDS011;16713;52.916;12.834;2023-05-21T13:25:09;8.02;;;7.18;;
29824;SDS011;16713;52.916;12.834;2023-05-21T13:27:37;9.57;;;7.00;;
29824;SDS011;16713;52.916;12.834;2023-05-21T13:30:04;7.82;;;6.88;;
29824;SDS011;16713;52.916;12.834;2023-05-21T13:32:31;10.85;;;7.03;;
29824;SDS011;16713;52.916;12.834;2023-05-21T13:34:58;6.55;;;5.50;;
29824;SDS011;16713;52.916;12.834;2023-05-21T13:37:24;11.55;;;8.00;;
29824;SDS011;16713;52.916;12.834;2023-05-21T13:39:51;12.75;;;8.52;;
29824;SDS011;16713;52.916;12.834;2023-05-21T13:42:18;8.48;;;7.03;;
29824;SDS011;16713;52.916;12.834;2023-05-21T13:44:45;12.40;;;6.82;;
29824;SDS011;16713;52.916;12.834;2023-05-21T13:47:12;9.18;;;7.28;;
29824;SDS011;16713;52.916;12.834;2023-05-21T13:49:39;7.20;;;6.50;;
29824;SDS011;16713;52.916;12.834;2023-05-21T13:52:06;7.18;;;6.47;;
29824;SDS011;16713;52.916;12.834;2023-05-21T13:54:34;10.75;;;6.88;;
29824;SDS011;16713;52.916;12.834;2023-05-21T13:57:01;7.82;;;6.90;;
29824;SDS011;16713;52.916;12.834;2023-05-21T13:59:28;10.43;;;6.30;;
29824;SDS011;16713;52.916;12.834;2023-05-21T14:01:58;8.18;;;6.53;;
29824;SDS011;16713;52.916;12.834;2023-05-21T14:04:25;8.88;;;6.63;;
29824;SDS011;16713;52.916;12.834;2023-05-21T14:06:52;7.53;;;6.28;;
29824;SDS011;16713;52.916;12.834;2023-05-21T14:09:19;9.88;;;6.05;;
29824;SDS011;16713;52.916;12.834;2023-05-21T14:11:46;8.80;;;6.57;;
29824;SDS011;16713;52.916;12.834;2023-05-21T14:14:12;6.85;;;5.70;;
29824;SDS011;16713;52.916;12.834;2023-05-21T14:16:44;7.18;;;6.47;;
29824;SDS011;16713;52.916;12.834;2023-05-21T14:19:12;7.55;;;5.80;;
29824;SDS011;16713;52.916;12.834;2023-05-21T14:21:39;10.77;;;6.50;;
29824;SDS011;16713;52.916;12.834;2023-05-21T14:24:06;8.73;;;6.25;;
29824;SDS011;16713;52.916;12.834;2023-05-21T14:26:33;9.00;;;6.40;;
29824;SDS011;16713;52.916;12.834;2023-05-21T14:29:01;13.35;;;7.22;;
29824;SDS011;16713;52.916;12.834;2023-05-21T14:31:28;7.75;;;6.07;;
29824;SDS011;16713;52.916;12.834;2023-05-21T14:33:55;11.15;;;6.70;;
29824;SDS011;16713;52.916;12.834;2023-05-21T14:36:21;11.27;;;6.18;;
29824;SDS011;16713;52.916;12.834;2023-05-21T14:38:47;10.05;;;6.13;;
29824;SDS011;16713;52.916;12.834;2023-05-21T14:41:14;10.55;;;7.25;;
29824;SDS011;16713;52.916;12.834;2023-05-21T14:43:40;9.48;;;6.60;;
29824;SDS011;16713;52.916;12.834;2023-05-21T14:46:07;7.35;;;5.60;;
29824;SDS011;16713;52.916;12.834;2023-05-21T14:48:34;8.93;;;5.95;;
29824;SDS011;16713;52.916;12.834;2023-05-21T14:51:00;10.77;;;5.65;;
29824;SDS011;16713;52.916;12.834;2023-05-21T14:53:27;9.93;;;5.40;;
29824;SDS011;16713;52.916;12.834;2023-05-21T14:55:53;12.27;;;7.20;;
29824;SDS011;16713;52.916;12.834;2023-05-21T14:58:20;7.55;;;6.07;;
29824;SDS011;16713;52.916;12.834;2023-05-21T15:00:46;9.80;;;5.82;;